Time;durP1;ratioP1;P1;durP2;ratioP2;P2;SDS_P1;SDS_P2;PMS_P1;PMS_P2;Temp;Humidity;BMP_temperature;BMP_pressure;BME280_temperature;BME280_humidity;BME280_pressure;Samples;Min_cycle;Max_cycle;Signal;HPM_P1;HPM_P2
2023/08/10 00:00:08;;;;;;;0.73;0.40;;;15.70;54.00;;;;;;5073512;28;20506;-71
2023/08/10 00:02:35;;;;;;;1.00;0.40;;;15.80;19.10;;;;;;5073903;28;20517;-71
2023/08/10 00:05:02;;;;;;;0.60;0.40;;;15.80;12.10;;;;;;5075730;28;20506;-71
2023/08/10 00:07:29;;;;;;;0.77;0.40;;;15.80;9.20;;;;;;5076565;28;20423;-71
2023/08/10 00:09:57;;;;;;;0.70;0.40;;;15.80;7.30;;;;;;5075376;28;20506;-71
2023/08/10 00:12:24;;;;;;;0.80;0.40;;;15.90;1.00;;;;;;5075993;28;20434;-71
2023/08/10 00:14:52;;;;;;;0.60;0.40;;;16.00;1.00;;;;;;5076555;28;20507;-71
2023/08/10 00:17:19;;;;;;;0.70;0.50;;;16.10;1.00;;;;;;5077160;28;20511;-71
2023/08/10 00:19:45;;;;;;;0.70;0.40;;;16.00;1.00;;;;;;5076534;28;20791;-71
2023/08/10 00:22:14;;;;;;;0.80;0.50;;;15.90;1.00;;;;;;5075673;28;20423;-71
2023/08/10 00:24:41;;;;;;;1.30;0.50;;;15.90;1.00;;;;;;5077012;28;20458;-71
2023/08/10 00:27:08;;;;;;;0.98;0.43;;;15.90;1.00;;;;;;5076123;28;20507;-72
2023/08/10 00:29:35;;;;;;;0.60;0.40;;;15.90;1.00;;;;;;5076878;28;20462;-71
2023/08/10 00:32:03;;;;;;;1.20;0.50;;;15.90;1.00;;;;;;5076791;28;20423;-72
2023/08/10 00:34:30;;;;;;;0.60;0.50;;;15.90;1.00;;;;;;5076624;28;20447;-71
2023/08/10 00:36:57;;;;;;;0.70;0.50;;;15.90;1.00;;;;;;5076525;28;20878;-73
2023/08/10 00:39:24;;;;;;;0.80;0.50;;;15.70;4.70;;;;;;5076736;28;20510;-73
2023/08/10 00:41:51;;;;;;;0.70;0.50;;;15.70;20.80;;;;;;5075707;28;20625;-72
2023/08/10 00:44:19;;;;;;;0.80;0.50;;;15.60;25.50;;;;;;5075831;28;20502;-72
2023/08/10 00:46:46;;;;;;;1.40;0.70;;;15.60;38.20;;;;;;5075431;28;20506;-72
2023/08/10 00:49:14;;;;;;;0.80;0.50;;;15.50;46.60;;;;;;5075484;28;20522;-73
2023/08/10 00:51:41;;;;;;;1.13;0.60;;;15.50;34.90;;;;;;5076419;28;20514;-72
2023/08/10 00:54:08;;;;;;;0.70;0.40;;;15.40;47.50;;;;;;5076291;28;20458;-71
2023/08/10 00:56:36;;;;;;;0.70;0.50;;;15.50;61.30;;;;;;5076294;28;20863;-72
2023/08/10 00:59:03;;;;;;;0.80;0.50;;;15.50;26.40;;;;;;5076405;28;20778;-72
2023/08/10 01:01:30;;;;;;;0.90;0.50;;;15.50;43.00;;;;;;5076015;28;20463;-72
2023/08/10 01:03:57;;;;;;;0.80;0.50;;;15.40;52.90;;;;;;5075666;28;20820;-72
2023/08/10 01:06:34;;;;;;;0.77;0.50;;;15.30;64.90;;;;;;5075912;28;20424;-71
2023/08/10 01:09:10;;;;;;;2.40;0.50;;;15.40;83.20;;;;;;5075574;28;20520;-72
2023/08/10 01:11:39;;;;;;;0.90;0.50;;;15.40;46.50;;;;;;5076319;28;20878;-72
2023/08/10 01:14:13;;;;;;;1.20;0.60;;;15.50;46.70;;;;;;5075650;28;20430;-72
2023/08/10 01:16:42;;;;;;;1.02;0.60;;;15.60;42.20;;;;;;5076771;28;20494;-72
2023/08/10 01:19:21;;;;;;;3.00;0.50;;;15.60;31.20;;;;;;5077549;28;20753;-71
2023/08/10 01:21:57;;;;;;;1.17;0.52;;;15.60;21.80;;;;;;5076294;28;20506;-71
2023/08/10 01:24:28;;;;;;;1.80;0.60;;;15.70;15.00;;;;;;5075587;28;20424;-71
2023/08/10 01:26:56;;;;;;;0.70;0.50;;;15.80;11.10;;;;;;5073760;28;20456;-72
2023/08/10 01:29:24;;;;;;;0.98;0.50;;;15.80;9.30;;;;;;5056168;28;20507;-72
2023/08/10 01:31:51;;;;;;;0.80;0.50;;;15.80;5.70;;;;;;5064322;28;20849;-71
2023/08/10 01:34:18;;;;;;;1.85;0.47;;;15.80;1.00;;;;;;5074286;28;20431;-71
2023/08/10 01:36:45;;;;;;;0.70;0.45;;;15.80;1.00;;;;;;5069284;28;20444;-72
2023/08/10 01:39:12;;;;;;;0.70;0.40;;;15.80;1.00;;;;;;5075188;28;20462;-72
2023/08/10 01:41:39;;;;;;;0.80;0.50;;;15.90;1.00;;;;;;5068679;28;20528;-72
2023/08/10 01:44:07;;;;;;;0.70;0.50;;;15.80;1.00;;;;;;5055029;28;20425;-72
2023/08/10 01:46:37;;;;;;;0.90;0.60;;;15.80;5.40;;;;;;5060830;28;20871;-72
2023/08/10 01:49:10;;;;;;;0.70;0.50;;;15.70;5.30;;;;;;5074814;28;20478;-71
2023/08/10 01:51:41;;;;;;;0.80;0.50;;;15.70;4.90;;;;;;5069177;28;20442;-72
2023/08/10 01:54:10;;;;;;;1.30;0.60;;;15.80;4.90;;;;;;5074454;28;20423;-72
2023/08/10 01:56:37;;;;;;;0.70;0.50;;;15.80;1.00;;;;;;5061055;28;20473;-72
2023/08/10 01:59:05;;;;;;;0.70;0.50;;;15.70;11.80;;;;;;5055012;28;20508;-71
2023/08/10 02:01:33;;;;;;;1.00;0.60;;;15.70;9.80;;;;;;5064935;28;20458;-72
2023/08/10 02:04:00;;;;;;;0.80;0.60;;;15.60;8.60;;;;;;5075026;28;20875;-72
2023/08/10 02:06:27;;;;;;;0.90;0.50;;;15.50;25.20;;;;;;5070428;28;20467;-72
2023/08/10 02:08:54;;;;;;;0.70;0.50;;;15.50;25.80;;;;;;5074714;28;20428;-72
2023/08/10 02:11:21;;;;;;;0.80;0.50;;;15.40;29.90;;;;;;5056250;28;20915;-73
2023/08/10 02:13:48;;;;;;;1.30;0.50;;;15.40;35.50;;;;;;5054435;28;20425;-72
2023/08/10 02:16:15;;;;;;;0.80;0.50;;;15.30;46.60;;;;;;5069343;28;20437;-73
2023/08/10 02:18:43;;;;;;;0.90;0.60;;;15.30;49.90;;;;;;5074698;28;20463;-72
2023/08/10 02:21:10;;;;;;;0.85;0.50;;;15.30;80.00;;;;;;5070151;28;20510;-72
2023/08/10 02:23:37;;;;;;;1.15;0.60;;;15.30;76.40;;;;;;5072938;28;20459;-72
2023/08/10 02:26:04;;;;;;;0.60;0.50;;;15.30;80.40;;;;;;5071369;28;20478;-72
2023/08/10 02:28:31;;;;;;;0.70;0.50;;;15.30;89.80;;;;;;5071765;28;20545;-72
2023/08/10 02:30:58;;;;;;;0.90;0.60;;;15.20;94.00;;;;;;5072319;28;20439;-72
2023/08/10 02:33:24;;;;;;;0.70;0.50;;;15.20;99.90;;;;;;5075448;28;20476;-72
2023/08/10 02:35:53;;;;;;;0.80;0.50;;;15.10;99.90;;;;;;5077532;28;20526;-72
2023/08/10 02:38:20;;;;;;;0.70;0.60;;;15.10;99.90;;;;;;5074481;28;20447;-72
2023/08/10 02:40:46;;;;;;;2.22;0.50;;;15.10;99.90;;;;;;5058127;28;20512;-72
2023/08/10 02:43:13;;;;;;;0.80;0.50;;;15.10;99.90;;;;;;5063304;28;20466;-72
2023/08/10 02:45:40;;;;;;;0.82;0.50;;;15.10;99.90;;;;;;5078606;28;20473;-72
2023/08/10 02:48:07;;;;;;;0.87;0.60;;;15.10;99.90;;;;;;5075486;28;20459;-73
2023/08/10 02:50:34;;;;;;;0.90;0.50;;;15.00;99.90;;;;;;5058103;28;20532;-72
2023/08/10 02:53:03;;;;;;;0.70;0.60;;;14.80;99.90;;;;;;5062334;28;20539;-71
2023/08/10 02:55:30;;;;;;;0.90;0.50;;;14.80;99.90;;;;;;5078795;28;20506;-72
2023/08/10 02:57:58;;;;;;;0.80;0.60;;;14.80;99.90;;;;;;5072787;28;20433;-72
2023/08/10 03:00:25;;;;;;;0.80;0.50;;;14.80;99.90;;;;;;5058750;28;20508;-72
2023/08/10 03:02:52;;;;;;;1.10;0.50;;;14.80;99.90;;;;;;5064767;28;21082;-72
2023/08/10 03:05:19;;;;;;;0.73;0.50;;;14.90;99.90;;;;;;5078000;28;20419;-72
2023/08/10 03:07:46;;;;;;;0.70;0.50;;;14.90;99.90;;;;;;5068961;28;20471;-72
2023/08/10 03:10:14;;;;;;;0.82;0.60;;;14.90;99.90;;;;;;5058112;28;20483;-73
2023/08/10 03:12:41;;;;;;;0.90;0.57;;;15.00;99.90;;;;;;5068311;28;20925;-72
2023/08/10 03:15:11;;;;;;;0.90;0.60;;;15.00;99.90;;;;;;5077715;28;20428;-72
2023/08/10 03:17:39;;;;;;;1.50;0.60;;;15.20;99.90;;;;;;5071649;28;20439;-72
2023/08/10 03:20:12;;;;;;;1.30;0.60;;;15.30;99.90;;;;;;5078007;28;20473;-72
2023/08/10 03:22:39;;;;;;;0.95;0.60;;;15.20;99.90;;;;;;5072423;28;20466;-72
2023/08/10 03:25:07;;;;;;;0.85;0.60;;;15.20;99.90;;;;;;5078007;28;20519;-72
2023/08/10 03:27:35;;;;;;;0.80;0.60;;;15.20;99.90;;;;;;5062399;28;20441;-72
2023/08/10 03:30:03;;;;;;;0.80;0.60;;;15.10;99.90;;;;;;5057991;28;20468;-72
2023/08/10 03:32:30;;;;;;;1.30;0.60;;;15.10;99.90;;;;;;5075433;28;20430;-72
2023/08/10 03:34:57;;;;;;;0.90;0.60;;;15.10;99.90;;;;;;5077000;28;20576;-72
2023/08/10 03:37:25;;;;;;;2.30;0.70;;;15.10;99.90;;;;;;5072089;28;20471;-72
2023/08/10 03:39:52;;;;;;;1.20;0.60;;;15.00;99.90;;;;;;5074676;28;20434;-72
2023/08/10 03:42:19;;;;;;;1.80;0.60;;;15.00;99.90;;;;;;5075509;28;20846;-72
2023/08/10 03:44:47;;;;;;;1.83;0.70;;;14.90;99.90;;;;;;5074110;28;20801;-72
2023/08/10 03:47:14;;;;;;;1.10;0.70;;;15.00;99.90;;;;;;5056918;28;20500;-72
2023/08/10 03:49:41;;;;;;;0.90;0.60;;;14.90;99.90;;;;;;5059207;28;20531;-72
2023/08/10 03:52:08;;;;;;;1.10;0.70;;;14.90;99.90;;;;;;5076385;28;20828;-71
2023/08/10 03:54:34;;;;;;;0.98;0.60;;;14.90;99.90;;;;;;5073112;28;20812;-72
2023/08/10 03:57:01;;;;;;;1.03;0.70;;;14.90;99.90;;;;;;5076350;28;20927;-72
2023/08/10 03:59:30;;;;;;;1.00;0.60;;;14.90;99.90;;;;;;5075243;28;20431;-71
2023/08/10 04:01:58;;;;;;;0.90;0.60;;;14.90;99.90;;;;;;5076425;28;20518;-73
2023/08/10 04:04:25;;;;;;;0.90;0.60;;;14.90;99.90;;;;;;5071816;28;20537;-71
2023/08/10 04:06:52;;;;;;;0.80;0.60;;;14.80;99.90;;;;;;5076477;28;20942;-72
2023/08/10 04:09:19;;;;;;;0.90;0.60;;;14.80;99.90;;;;;;5074025;28;20493;-72
2023/08/10 04:11:46;;;;;;;1.40;0.60;;;14.80;99.90;;;;;;5056695;28;20528;-72
2023/08/10 04:14:12;;;;;;;2.60;0.60;;;14.80;99.90;;;;;;5058264;28;20519;-72
2023/08/10 04:16:39;;;;;;;1.10;0.60;;;14.90;99.90;;;;;;5076617;28;20506;-72
2023/08/10 04:19:08;;;;;;;1.40;0.60;;;14.90;99.90;;;;;;5070979;28;20437;-72
2023/08/10 04:21:35;;;;;;;1.20;0.70;;;15.00;99.90;;;;;;5076922;28;20510;-72
2023/08/10 04:24:02;;;;;;;0.95;0.70;;;15.00;99.90;;;;;;5070801;28;20437;-71
2023/08/10 04:26:30;;;;;;;0.90;0.60;;;15.00;99.90;;;;;;5075951;28;20473;-71
2023/08/10 04:28:57;;;;;;;1.58;0.60;;;15.00;99.90;;;;;;5071794;28;20437;-71
2023/08/10 04:31:24;;;;;;;1.00;0.70;;;14.90;99.90;;;;;;5054527;28;20532;-72
2023/08/10 04:33:51;;;;;;;0.80;0.60;;;14.90;99.90;;;;;;5057590;28;20433;-71
2023/08/10 04:36:19;;;;;;;0.90;0.60;;;14.90;99.90;;;;;;5054662;28;20536;-72
2023/08/10 04:38:46;;;;;;;0.90;0.60;;;14.80;99.90;;;;;;5058980;28;20423;-71
2023/08/10 04:41:13;;;;;;;0.95;0.60;;;14.80;99.90;;;;;;5073673;28;20407;-71
2023/08/10 04:43:40;;;;;;;1.00;0.70;;;14.80;99.90;;;;;;5065563;28;20864;-72
2023/08/10 04:46:07;;;;;;;1.00;0.70;;;14.90;99.90;;;;;;5056426;28;20429;-72
2023/08/10 04:48:34;;;;;;;1.00;0.68;;;14.90;99.90;;;;;;5055459;28;20852;-72
2023/08/10 04:51:01;;;;;;;1.80;0.85;;;14.90;99.90;;;;;;5055341;28;20812;-72
2023/08/10 04:53:29;;;;;;;1.27;0.68;;;14.90;99.90;;;;;;5054856;28;20421;-72
2023/08/10 04:55:56;;;;;;;1.00;0.70;;;15.00;99.90;;;;;;5054649;28;20453;-72
2023/08/10 04:58:23;;;;;;;2.90;0.70;;;15.00;99.90;;;;;;5056107;28;20512;-71
2023/08/10 05:00:52;;;;;;;1.00;0.60;;;15.00;99.90;;;;;;5055536;28;20495;-72
2023/08/10 05:03:20;;;;;;;1.15;0.70;;;15.00;99.90;;;;;;5055479;28;20797;-72
2023/08/10 05:05:47;;;;;;;1.25;0.70;;;15.00;99.90;;;;;;5055129;28;20425;-72
2023/08/10 05:08:14;;;;;;;1.02;0.80;;;15.00;99.90;;;;;;5055564;28;20774;-72
2023/08/10 05:10:45;;;;;;;1.20;0.73;;;15.10;99.90;;;;;;5055821;28;20437;-73
2023/08/10 05:13:12;;;;;;;1.10;0.70;;;15.10;99.90;;;;;;5056017;28;20507;-72
2023/08/10 05:15:39;;;;;;;1.70;0.70;;;15.10;99.90;;;;;;5055407;28;20512;-72
2023/08/10 05:18:06;;;;;;;1.10;0.70;;;15.20;99.90;;;;;;5055215;28;20788;-72
2023/08/10 05:20:33;;;;;;;1.00;0.70;;;15.20;99.90;;;;;;5055737;28;20456;-72
2023/08/10 05:23:00;;;;;;;1.00;0.70;;;15.20;99.90;;;;;;5055295;28;20452;-72
2023/08/10 05:25:27;;;;;;;1.00;0.70;;;15.30;99.90;;;;;;5054776;28;20770;-70
2023/08/10 05:27:55;;;;;;;1.40;0.80;;;15.30;99.90;;;;;;5053495;28;20433;-70
2023/08/10 05:30:23;;;;;;;1.50;0.73;;;15.20;99.90;;;;;;5053072;28;20429;-73
2023/08/10 05:32:49;;;;;;;1.52;0.70;;;15.30;99.90;;;;;;5052715;28;20401;-71
2023/08/10 05:35:20;;;;;;;1.00;0.70;;;15.20;99.90;;;;;;5052919;28;20516;-72
2023/08/10 05:37:48;;;;;;;1.33;0.70;;;15.20;99.90;;;;;;5052828;28;20492;-72
2023/08/10 05:40:17;;;;;;;1.20;0.90;;;15.30;99.90;;;;;;5052769;28;20421;-72
2023/08/10 05:42:44;;;;;;;1.00;0.70;;;15.30;99.90;;;;;;5052259;28;20837;-72
2023/08/10 05:45:19;;;;;;;1.70;0.68;;;15.20;99.90;;;;;;5051963;28;20451;-72
2023/08/10 05:47:47;;;;;;;1.80;0.70;;;15.10;99.90;;;;;;5052561;28;20422;-73
2023/08/10 05:50:14;;;;;;;1.10;0.80;;;15.20;99.90;;;;;;5053306;28;20749;-72
2023/08/10 05:52:42;;;;;;;1.08;0.85;;;15.30;99.90;;;;;;5061546;28;20825;-73
2023/08/10 05:55:10;;;;;;;2.00;0.80;;;15.40;99.90;;;;;;5073511;28;20821;-72
2023/08/10 05:57:37;;;;;;;0.90;0.70;;;15.40;99.90;;;;;;5074450;28;20481;-72
2023/08/10 06:00:05;;;;;;;1.00;0.68;;;15.70;99.90;;;;;;5072680;28;20910;-72
2023/08/10 06:02:34;;;;;;;1.10;0.70;;;15.90;99.90;;;;;;5060383;28;20433;-72
2023/08/10 06:05:00;;;;;;;1.00;0.70;;;16.00;98.30;;;;;;5069720;28;20439;-72
2023/08/10 06:07:27;;;;;;;1.10;0.70;;;16.10;80.90;;;;;;5058233;28;20508;-72
2023/08/10 06:09:54;;;;;;;1.30;0.70;;;16.10;79.70;;;;;;5061105;28;20421;-72
2023/08/10 06:12:21;;;;;;;1.10;0.80;;;16.20;81.80;;;;;;5068973;28;20440;-71
2023/08/10 06:14:48;;;;;;;0.90;0.70;;;16.20;86.90;;;;;;5072162;28;20502;-72
2023/08/10 06:17:15;;;;;;;1.17;0.70;;;16.30;94.80;;;;;;5072869;28;20490;-71
2023/08/10 06:19:52;;;;;;;1.00;0.80;;;16.40;91.20;;;;;;5067767;28;20442;-73
2023/08/10 06:22:19;;;;;;;1.10;0.73;;;16.40;80.60;;;;;;5072698;28;20427;-72
2023/08/10 06:24:46;;;;;;;1.13;0.70;;;16.50;91.30;;;;;;5071819;28;20514;-72
2023/08/10 06:27:13;;;;;;;1.10;0.80;;;16.60;76.30;;;;;;5059314;28;20527;-71
2023/08/10 06:29:40;;;;;;;1.10;0.80;;;16.50;56.60;;;;;;5056616;28;20440;-71
2023/08/10 06:32:08;;;;;;;1.20;0.77;;;16.60;60.80;;;;;;5051201;28;20443;-71
2023/08/10 06:34:35;;;;;;;1.40;0.70;;;16.70;37.60;;;;;;5052449;28;20456;-71
2023/08/10 06:37:03;;;;;;;1.10;0.80;;;16.60;45.00;;;;;;5052228;28;20432;-71
2023/08/10 06:39:30;;;;;;;1.13;0.80;;;16.70;47.70;;;;;;5064048;28;20849;-71
2023/08/10 06:41:58;;;;;;;1.60;0.90;;;16.70;47.80;;;;;;5071888;28;20428;-72
2023/08/10 06:44:25;;;;;;;1.83;0.90;;;16.80;42.80;;;;;;5071376;28;20994;-70
2023/08/10 06:46:52;;;;;;;1.00;0.80;;;16.90;31.80;;;;;;5071912;28;20423;-71
2023/08/10 06:49:21;;;;;;;1.40;1.00;;;16.90;33.60;;;;;;5067224;28;20724;-70
2023/08/10 06:51:48;;;;;;;1.17;0.90;;;16.90;46.10;;;;;;5071132;28;20882;-72
2023/08/10 06:54:16;;;;;;;1.60;0.80;;;17.00;39.30;;;;;;5073557;28;20447;-72
2023/08/10 06:56:43;;;;;;;1.50;0.90;;;17.00;28.30;;;;;;5060760;28;20433;-71
2023/08/10 06:59:10;;;;;;;1.20;0.90;;;17.00;42.90;;;;;;5057940;28;20827;-71
2023/08/10 07:01:37;;;;;;;1.42;0.90;;;17.00;36.10;;;;;;5058550;28;20430;-70
2023/08/10 07:04:05;;;;;;;1.88;0.80;;;17.10;42.00;;;;;;5050961;28;20425;-70
2023/08/10 07:06:32;;;;;;;1.90;0.80;;;17.20;19.60;;;;;;5050441;28;20523;-69
2023/08/10 07:08:59;;;;;;;2.20;0.90;;;17.20;36.10;;;;;;5048662;28;20434;-71
2023/08/10 07:11:27;;;;;;;1.50;1.00;;;17.30;29.70;;;;;;5050280;28;20528;-70
2023/08/10 07:13:54;;;;;;;1.40;0.90;;;17.30;30.40;;;;;;5051160;28;21047;-71
2023/08/10 07:16:24;;;;;;;1.42;0.85;;;17.40;30.10;;;;;;5062480;28;20942;-70
2023/08/10 07:18:54;;;;;;;1.60;0.90;;;17.50;22.70;;;;;;5053730;28;20484;-71
2023/08/10 07:21:24;;;;;;;1.30;0.90;;;17.50;19.70;;;;;;5055092;28;20427;-72
2023/08/10 07:23:51;;;;;;;1.80;0.90;;;17.50;21.20;;;;;;5065729;28;20427;-72
2023/08/10 07:26:18;;;;;;;1.20;0.82;;;17.60;28.50;;;;;;5076002;28;20430;-72
2023/08/10 07:28:47;;;;;;;1.30;1.00;;;17.70;99.90;;;;;;5060612;28;20491;-71
2023/08/10 07:31:14;;;;;;;1.65;0.95;;;17.80;99.90;;;;;;5056874;28;20436;-71
2023/08/10 07:33:40;;;;;;;1.00;0.80;;;17.90;99.90;;;;;;5056200;28;20511;-72
2023/08/10 07:36:07;;;;;;;1.58;0.80;;;18.00;99.90;;;;;;5055734;28;20939;-71
2023/08/10 07:38:34;;;;;;;1.20;0.87;;;17.90;99.90;;;;;;5056432;28;20461;-71
2023/08/10 07:41:02;;;;;;;1.40;0.90;;;17.90;99.90;;;;;;5056940;28;20433;-71
2023/08/10 07:43:29;;;;;;;1.17;0.88;;;17.90;99.90;;;;;;5060368;28;20902;-71
2023/08/10 07:45:57;;;;;;;1.33;0.90;;;18.00;99.90;;;;;;5074054;28;20486;-71
2023/08/10 07:48:24;;;;;;;1.75;0.90;;;18.30;99.90;;;;;;5068978;28;20471;-71
2023/08/10 07:50:52;;;;;;;1.45;0.90;;;18.40;99.90;;;;;;5073252;28;20464;-71
2023/08/10 07:53:23;;;;;;;1.50;0.90;;;18.30;99.90;;;;;;5073328;28;20550;-71
2023/08/10 07:55:50;;;;;;;1.20;0.90;;;18.40;99.90;;;;;;5074867;28;20871;-71
2023/08/10 07:58:19;;;;;;;1.70;0.80;;;18.30;99.90;;;;;;5076599;28;20509;-70
2023/08/10 08:00:46;;;;;;;1.30;0.90;;;18.40;99.90;;;;;;5077417;28;20435;-70
2023/08/10 08:03:15;;;;;;;1.60;0.90;;;18.50;99.90;;;;;;5077384;28;20514;-70
2023/08/10 08:05:42;;;;;;;1.40;0.90;;;18.50;99.90;;;;;;5075620;28;20462;-70
2023/08/10 08:08:09;;;;;;;1.47;0.90;;;18.50;99.90;;;;;;5075725;28;20802;-70
2023/08/10 08:10:36;;;;;;;1.60;1.00;;;18.40;99.90;;;;;;5075342;28;20614;-71
2023/08/10 08:13:03;;;;;;;1.15;0.80;;;18.50;99.90;;;;;;5077251;28;20443;-70
2023/08/10 08:15:30;;;;;;;1.00;0.70;;;18.60;99.90;;;;;;5074976;28;20437;-70
2023/08/10 08:18:37;;;;;;;1.20;0.90;;;18.90;99.90;;;;;;5056992;28;20515;-70
2023/08/10 08:21:06;;;;;;;1.40;0.73;;;19.00;99.90;;;;;;5068809;28;20462;-71
2023/08/10 08:23:33;;;;;;;1.45;0.80;;;19.10;99.90;;;;;;5055668;28;20478;-71
2023/08/10 08:26:02;;;;;;;1.25;0.90;;;19.30;99.90;;;;;;5054805;28;20453;-71
2023/08/10 08:28:29;;;;;;;1.17;0.80;;;19.60;99.90;;;;;;5053254;28;20500;-71
2023/08/10 08:30:56;;;;;;;1.10;0.70;;;19.40;99.90;;;;;;5053010;28;20507;-71
2023/08/10 08:33:22;;;;;;;1.10;0.80;;;19.30;99.90;;;;;;5054986;28;20504;-71
2023/08/10 08:35:50;;;;;;;1.20;0.80;;;19.50;99.90;;;;;;5057195;28;20940;-71
2023/08/10 08:38:19;;;;;;;1.60;0.90;;;19.50;99.90;;;;;;5056198;28;20453;-71
2023/08/10 08:40:48;;;;;;;1.30;1.00;;;19.50;99.90;;;;;;5067033;28;20424;-71
2023/08/10 08:43:15;;;;;;;2.35;0.80;;;19.30;99.90;;;;;;5053362;28;20951;-71
2023/08/10 08:45:42;;;;;;;1.98;0.80;;;19.30;99.90;;;;;;5072377;28;20973;-71
2023/08/10 08:48:10;;;;;;;1.20;0.85;;;19.30;99.90;;;;;;5073317;28;20426;-71
2023/08/10 08:50:38;;;;;;;2.10;0.90;;;19.50;99.90;;;;;;5074665;28;20995;-71
2023/08/10 08:53:07;;;;;;;1.00;0.70;;;19.60;99.90;;;;;;5074288;28;20467;-70
2023/08/10 08:55:38;;;;;;;1.00;0.80;;;19.70;99.90;;;;;;5073203;28;20554;-70
2023/08/10 08:58:06;;;;;;;0.85;0.70;;;19.90;99.90;;;;;;5072344;28;20469;-70
2023/08/10 09:00:33;;;;;;;1.60;0.80;;;20.00;99.90;;;;;;5073313;28;20503;-70
2023/08/10 09:03:00;;;;;;;1.20;0.70;;;20.10;99.90;;;;;;5074079;28;20507;-70
2023/08/10 09:05:27;;;;;;;1.40;0.80;;;19.90;99.90;;;;;;5073604;28;20485;-70
2023/08/10 09:07:54;;;;;;;1.08;0.70;;;19.90;99.90;;;;;;5074039;28;20447;-70
2023/08/10 09:10:21;;;;;;;0.90;0.60;;;19.90;99.90;;;;;;5060995;28;20461;-71
2023/08/10 09:12:50;;;;;;;1.10;0.70;;;20.00;99.90;;;;;;5053792;28;20448;-70
2023/08/10 09:15:21;;;;;;;1.00;0.70;;;20.00;99.90;;;;;;5052130;28;20455;-72
2023/08/10 09:17:51;;;;;;;0.90;0.70;;;20.00;99.90;;;;;;5053219;28;20436;-71
2023/08/10 09:20:20;;;;;;;1.00;0.70;;;20.00;99.90;;;;;;5061507;28;20552;-71
2023/08/10 09:22:51;;;;;;;0.90;0.60;;;20.30;99.90;;;;;;5054388;28;20425;-71
2023/08/10 09:25:18;;;;;;;0.80;0.60;;;20.60;99.90;;;;;;5065692;28;20917;-70
2023/08/10 09:27:47;;;;;;;1.10;0.70;;;20.90;99.90;;;;;;5071203;28;20523;-71
2023/08/10 09:30:20;;;;;;;1.07;0.80;;;21.00;99.90;;;;;;5068116;28;20493;-71
2023/08/10 09:32:47;;;;;;;0.90;0.65;;;21.00;99.90;;;;;;5070727;28;20843;-72
2023/08/10 09:35:16;;;;;;;0.90;0.70;;;21.20;99.90;;;;;;5072405;28;20479;-71
2023/08/10 09:37:48;;;;;;;2.50;0.60;;;21.40;99.90;;;;;;5058645;28;20526;-71
2023/08/10 09:40:16;;;;;;;1.60;0.70;;;21.60;99.90;;;;;;5064686;28;20867;-71
2023/08/10 09:42:43;;;;;;;1.00;0.70;;;21.70;99.90;;;;;;5061290;28;20550;-71
2023/08/10 09:45:12;;;;;;;1.10;0.70;;;21.70;99.90;;;;;;5059342;28;20418;-71
2023/08/10 09:47:42;;;;;;;1.20;0.70;;;21.40;99.90;;;;;;5073555;28;20925;-71
2023/08/10 09:50:12;;;;;;;0.90;0.60;;;21.30;99.90;;;;;;5054417;28;20803;-72
2023/08/10 09:52:39;;;;;;;0.88;0.60;;;21.30;99.90;;;;;;5052071;28;20443;-72
2023/08/10 09:55:08;;;;;;;0.82;0.60;;;21.40;99.90;;;;;;5063083;28;20538;-71
2023/08/10 09:57:40;;;;;;;1.10;0.55;;;21.70;99.90;;;;;;5057103;28;20853;-71
2023/08/10 10:00:18;;;;;;;1.20;0.75;;;21.90;99.90;;;;;;5067818;28;20513;-71
2023/08/10 10:02:47;;;;;;;0.93;0.70;;;22.10;99.90;;;;;;5069045;28;20449;-70
2023/08/10 10:05:16;;;;;;;0.98;0.70;;;22.40;99.90;;;;;;5060775;28;20521;-71
2023/08/10 10:07:45;;;;;;;1.00;0.70;;;22.30;99.90;;;;;;5072028;28;20461;-71
2023/08/10 10:10:16;;;;;;;0.90;0.80;;;22.00;99.90;;;;;;5065376;28;20499;-71
2023/08/10 10:12:46;;;;;;;1.00;0.60;;;21.90;99.90;;;;;;5067610;28;20783;-71
2023/08/10 10:15:14;;;;;;;1.92;0.70;;;21.80;99.90;;;;;;5072600;28;20438;-71
2023/08/10 10:17:41;;;;;;;0.82;0.60;;;21.70;99.90;;;;;;5071973;28;20869;-72
2023/08/10 10:20:11;;;;;;;0.95;0.60;;;21.90;99.90;;;;;;5065550;28;20443;-72
2023/08/10 10:22:39;;;;;;;1.00;0.60;;;22.30;99.90;;;;;;5052252;28;20440;-72
2023/08/10 10:25:14;;;;;;;0.88;0.60;;;22.80;99.90;;;;;;5064094;28;20427;-73
2023/08/10 10:27:41;;;;;;;0.90;0.60;;;23.30;99.90;;;;;;5074010;28;20415;-71
2023/08/10 10:30:17;;;;;;;1.08;0.70;;;23.60;99.90;;;;;;5073194;28;20512;-72
2023/08/10 10:32:45;;;;;;;1.77;0.70;;;24.00;99.90;;;;;;5063105;28;21002;-72
2023/08/10 10:35:16;;;;;;;1.20;0.70;;;24.10;99.90;;;;;;5068749;28;20423;-72
2023/08/10 10:37:43;;;;;;;0.90;0.50;;;24.30;99.90;;;;;;5067254;28;20431;-71
2023/08/10 10:40:16;;;;;;;1.17;0.50;;;24.50;99.90;;;;;;5067695;28;20427;-72
2023/08/10 10:43:05;;;;;;;1.02;0.60;;;24.90;99.90;;;;;;5052989;28;20420;-72
2023/08/10 10:45:36;;;;;;;2.15;0.60;;;25.50;99.90;;;;;;5067971;28;20518;-72
2023/08/10 10:48:04;;;;;;;1.00;0.60;;;26.00;99.90;;;;;;5072316;28;20489;-72
2023/08/10 10:50:34;;;;;;;0.85;0.60;;;26.20;99.90;;;;;;5071441;28;20434;-71
2023/08/10 10:53:05;;;;;;;1.30;0.60;;;26.30;99.90;;;;;;5072721;28;20427;-72
2023/08/10 10:55:41;;;;;;;0.70;0.50;;;26.40;99.90;;;;;;5074054;28;20510;-71
2023/08/10 10:58:11;;;;;;;1.50;0.60;;;26.20;99.90;;;;;;5074264;28;20463;-71
2023/08/10 11:00:39;;;;;;;0.98;0.60;;;26.10;99.90;;;;;;5076492;28;20419;-73
2023/08/10 11:03:10;;;;;;;0.70;0.50;;;26.20;99.90;;;;;;5065205;28;20514;-71
2023/08/10 11:05:38;;;;;;;0.90;0.60;;;26.20;99.90;;;;;;5075021;28;20935;-72
2023/08/10 11:08:06;;;;;;;0.80;0.60;;;26.40;99.90;;;;;;5075123;28;20487;-71
2023/08/10 11:10:36;;;;;;;0.90;0.60;;;26.30;99.90;;;;;;5075494;28;20420;-71
2023/08/10 11:13:05;;;;;;;1.60;0.70;;;26.30;99.90;;;;;;5075015;28;20423;-72
2023/08/10 11:15:32;;;;;;;1.20;0.68;;;26.40;99.90;;;;;;5075566;28;20489;-69
2023/08/10 11:17:59;;;;;;;1.40;0.60;;;26.70;99.90;;;;;;5072981;28;20494;-70
2023/08/10 11:20:26;;;;;;;0.80;0.60;;;26.60;99.90;;;;;;5067710;28;20423;-71
2023/08/10 11:22:55;;;;;;;0.80;0.60;;;26.60;99.90;;;;;;5067202;28;20476;-71
2023/08/10 11:25:26;;;;;;;1.30;0.60;;;26.90;99.90;;;;;;5068219;28;20854;-71
2023/08/10 11:27:56;;;;;;;1.00;0.70;;;27.10;99.90;;;;;;5069924;28;20510;-70
2023/08/10 11:30:24;;;;;;;1.40;0.60;;;26.70;99.90;;;;;;5066532;28;20488;-70
2023/08/10 11:32:54;;;;;;;0.95;0.60;;;26.30;99.90;;;;;;5067193;28;20559;-70
2023/08/10 11:35:25;;;;;;;0.93;0.60;;;26.50;99.90;;;;;;5063432;28;20477;-70
2023/08/10 11:37:53;;;;;;;0.90;0.70;;;26.50;99.90;;;;;;5065808;28;20468;-69
2023/08/10 11:40:23;;;;;;;0.90;0.50;;;26.80;99.90;;;;;;5070560;28;20865;-70
2023/08/10 11:42:52;;;;;;;0.90;0.60;;;26.90;99.90;;;;;;5056538;28;20517;-71
2023/08/10 11:45:24;;;;;;;0.93;0.60;;;27.10;99.90;;;;;;5054187;28;20482;-70
2023/08/10 11:47:56;;;;;;;1.00;0.50;;;27.10;99.90;;;;;;5061546;28;20436;-71
2023/08/10 11:50:23;;;;;;;1.08;0.60;;;27.20;99.90;;;;;;5054281;28;20536;-71
2023/08/10 11:52:50;;;;;;;0.80;0.60;;;27.50;99.90;;;;;;5053543;28;21061;-72
2023/08/10 11:55:18;;;;;;;0.80;0.60;;;27.00;99.90;;;;;;5053383;28;20497;-72
2023/08/10 11:57:49;;;;;;;1.25;0.60;;;26.80;99.90;;;;;;5055046;28;20444;-73
2023/08/10 12:00:28;;;;;;;1.10;0.60;;;26.90;99.90;;;;;;5054787;28;20429;-72
2023/08/10 12:03:00;;;;;;;1.80;0.60;;;27.20;99.90;;;;;;5055419;28;20425;-72
2023/08/10 12:05:42;;;;;;;0.70;0.50;;;27.30;99.90;;;;;;5055822;28;20437;-71
2023/08/10 12:08:11;;;;;;;1.05;0.50;;;27.60;99.90;;;;;;5063291;28;20473;-70
2023/08/10 12:10:40;;;;;;;1.00;0.63;;;27.70;99.90;;;;;;5053470;28;20433;-71
2023/08/10 12:13:10;;;;;;;0.90;0.60;;;27.70;99.90;;;;;;5060110;28;21169;-71
2023/08/10 12:15:38;;;;;;;0.90;0.70;;;27.50;99.90;;;;;;5054353;28;20867;-72
2023/08/10 12:18:06;;;;;;;1.30;0.60;;;27.20;99.90;;;;;;5054106;28;20857;-72
2023/08/10 12:20:36;;;;;;;1.00;0.60;;;27.20;99.90;;;;;;5054798;28;20421;-73
2023/08/10 12:23:03;;;;;;;0.82;0.60;;;27.50;99.90;;;;;;5066309;28;20875;-71
2023/08/10 12:25:30;;;;;;;1.20;0.60;;;27.50;99.20;;;;;;5060544;28;20423;-72
2023/08/10 12:27:57;;;;;;;0.90;0.60;;;27.60;99.60;;;;;;5072214;28;20510;-72
2023/08/10 12:30:25;;;;;;;1.00;0.70;;;27.60;99.20;;;;;;5071784;28;20518;-71
2023/08/10 12:32:54;;;;;;;0.80;0.50;;;27.70;98.30;;;;;;5069256;28;20442;-72
2023/08/10 12:35:21;;;;;;;0.90;0.60;;;28.00;97.10;;;;;;5070400;28;20738;-71
2023/08/10 12:37:49;;;;;;;0.90;0.60;;;27.70;96.50;;;;;;5071793;28;20474;-73
2023/08/10 12:40:16;;;;;;;1.50;0.70;;;27.20;96.90;;;;;;5072474;28;20938;-71
2023/08/10 12:42:44;;;;;;;1.10;0.60;;;26.90;99.00;;;;;;5067116;28;20485;-71
2023/08/10 12:45:12;;;;;;;1.00;0.68;;;27.20;97.80;;;;;;5069631;28;20511;-71
2023/08/10 12:47:41;;;;;;;0.97;0.60;;;27.50;97.30;;;;;;5064855;28;20435;-71
2023/08/10 12:50:10;;;;;;;0.80;0.60;;;27.70;97.10;;;;;;5070076;28;20516;-72
2023/08/10 12:52:39;;;;;;;0.80;0.60;;;27.80;95.20;;;;;;5068827;28;20474;-72